createdAt,value
2018-09-23T00:00:41.612Z,6.20
2018-09-23T00:03:09.957Z,5.93
2018-09-23T00:05:38.326Z,6.43
2018-09-23T00:08:06.974Z,6.40
2018-09-23T00:10:35.288Z,6.10
2018-09-23T00:13:03.852Z,6.30
2018-09-23T00:15:32.214Z,6.40
2018-09-23T00:18:00.555Z,7.23
2018-09-23T00:20:28.876Z,6.70
2018-09-23T00:22:57.225Z,7.20
2018-09-23T00:25:25.535Z,7.03
2018-09-23T00:27:53.883Z,6.40
2018-09-23T00:30:22.214Z,7.00
2018-09-23T00:32:50.536Z,6.40
2018-09-23T00:35:18.868Z,6.60
2018-09-23T00:37:47.187Z,7.23
2018-09-23T00:40:15.510Z,6.83
2018-09-23T00:42:43.851Z,6.53
2018-09-23T00:45:12.182Z,7.10
2018-09-23T00:47:40.498Z,6.80
2018-09-23T00:50:08.839Z,6.87
2018-09-23T00:52:37.186Z,7.63
2018-09-23T00:55:05.979Z,7.60
2018-09-23T00:57:34.496Z,7.33
2018-09-23T01:00:02.883Z,7.47
2018-09-23T01:02:31.279Z,6.80
2018-09-23T01:04:59.621Z,7.57
2018-09-23T01:07:27.943Z,6.90
2018-09-23T01:09:56.314Z,7.37
2018-09-23T01:12:24.656Z,7.87
2018-09-23T01:14:53.012Z,7.50
2018-09-23T01:17:21.319Z,7.03
2018-09-23T01:19:49.650Z,7.77
2018-09-23T01:22:17.954Z,7.50
2018-09-23T01:24:46.291Z,7.70
2018-09-23T01:27:14.662Z,7.03
2018-09-23T01:29:42.998Z,7.87
2018-09-23T01:32:11.333Z,8.33
2018-09-23T01:34:39.671Z,8.10
2018-09-23T01:37:08.146Z,9.10
2018-09-23T01:39:36.479Z,8.73
2018-09-23T01:42:04.919Z,9.67
2018-09-23T01:44:33.247Z,9.37
2018-09-23T01:47:01.583Z,9.03
2018-09-23T01:49:29.920Z,9.47
2018-09-23T01:51:58.279Z,9.70
2018-09-23T01:54:26.654Z,8.53
2018-09-23T01:56:54.960Z,9.03
2018-09-23T01:59:23.308Z,9.33
2018-09-23T02:01:51.656Z,9.73
2018-09-23T02:04:19.967Z,9.03
2018-09-23T02:06:48.308Z,9.20
2018-09-23T02:09:16.636Z,9.57
2018-09-23T02:11:44.990Z,9.50
2018-09-23T02:14:13.312Z,9.97
2018-09-23T02:16:41.643Z,9.47
2018-09-23T02:19:09.967Z,10.17
2018-09-23T02:21:39.265Z,8.33
2018-09-23T02:24:07.723Z,10.77
2018-09-23T02:26:36.062Z,9.60
2018-09-23T02:29:04.404Z,9.63
2018-09-23T02:31:32.750Z,10.07
2018-09-23T02:34:01.065Z,9.67
2018-09-23T02:36:29.403Z,10.17
2018-09-23T02:38:57.882Z,10.13
2018-09-23T02:41:27.907Z,10.97
2018-09-23T02:43:56.354Z,10.03
2018-09-23T02:46:24.726Z,10.37
2018-09-23T02:48:53.039Z,10.67
2018-09-23T02:51:21.382Z,10.97
2018-09-23T02:53:49.714Z,10.80
2018-09-23T02:56:18.047Z,11.30
2018-09-23T02:58:46.388Z,11.23
2018-09-23T03:01:14.767Z,11.10
2018-09-23T03:03:43.091Z,10.90
2018-09-23T03:06:11.442Z,12.13
2018-09-23T03:08:39.792Z,11.77
2018-09-23T03:11:08.160Z,11.83
2018-09-23T03:13:36.501Z,11.93
2018-09-23T03:16:04.855Z,11.83
2018-09-23T03:18:33.186Z,11.50
2018-09-23T03:21:01.543Z,12.67
2018-09-23T03:23:29.863Z,12.20
2018-09-23T03:25:58.223Z,12.60
2018-09-23T03:28:26.568Z,11.50
2018-09-23T03:30:54.896Z,13.00
2018-09-23T03:33:23.231Z,12.63
2018-09-23T03:35:51.587Z,12.60
2018-09-23T03:38:19.927Z,13.03
2018-09-23T03:40:48.415Z,12.43
2018-09-23T03:43:16.758Z,12.43
2018-09-23T03:45:45.087Z,13.20
2018-09-23T03:48:13.488Z,12.13
2018-09-23T03:50:41.854Z,12.10
2018-09-23T03:53:10.211Z,12.73
2018-09-23T03:55:38.531Z,11.30
2018-09-23T03:58:06.879Z,12.37
2018-09-23T04:00:35.219Z,13.27
2018-09-23T04:03:03.628Z,12.53
2018-09-23T04:05:32.138Z,12.13
2018-09-23T04:08:00.514Z,12.10
2018-09-23T04:10:28.835Z,11.60
2018-09-23T04:12:57.209Z,12.30
2018-09-23T04:15:25.533Z,12.20
2018-09-23T04:17:53.882Z,11.93
2018-09-23T04:20:22.212Z,11.63
2018-09-23T04:22:51.526Z,11.07
2018-09-23T04:25:21.219Z,11.10
2018-09-23T04:27:49.830Z,11.23
2018-09-23T04:30:19.823Z,11.70
2018-09-23T04:32:48.181Z,10.90
2018-09-23T04:35:17.091Z,11.33
2018-09-23T04:37:45.699Z,11.23
2018-09-23T04:40:14.064Z,11.70
2018-09-23T04:42:42.443Z,10.87
2018-09-23T04:45:10.846Z,10.47
2018-09-23T04:47:39.192Z,11.97
2018-09-23T04:50:07.533Z,11.00
2018-09-23T04:52:35.867Z,10.83
2018-09-23T04:55:04.245Z,11.37
2018-09-23T04:57:32.614Z,11.03
2018-09-23T05:00:00.970Z,10.73
2018-09-23T05:02:29.343Z,11.37
2018-09-23T05:04:57.654Z,11.37
2018-09-23T05:07:26.010Z,10.57
2018-09-23T05:09:54.335Z,11.23
2018-09-23T05:12:22.694Z,11.13
2018-09-23T05:14:51.015Z,10.53
2018-09-23T05:17:19.382Z,10.57
2018-09-23T05:19:47.701Z,10.90
2018-09-23T05:22:16.095Z,10.20
2018-09-23T05:24:44.413Z,10.50
2018-09-23T05:27:12.799Z,9.67
2018-09-23T05:29:41.175Z,9.90
2018-09-23T05:32:09.491Z,9.77
2018-09-23T05:34:37.822Z,9.63
2018-09-23T05:37:06.375Z,9.47
2018-09-23T05:39:34.779Z,9.57
2018-09-23T05:42:03.131Z,9.07
2018-09-23T05:44:31.486Z,10.00
2018-09-23T05:46:59.818Z,9.27
2018-09-23T05:49:28.162Z,8.73
2018-09-23T05:51:56.482Z,10.27
2018-09-23T05:54:24.841Z,10.20
2018-09-23T05:56:53.164Z,9.27
2018-09-23T05:59:21.499Z,10.20
2018-09-23T06:01:49.812Z,9.83
2018-09-23T06:04:18.155Z,10.20
2018-09-23T06:06:46.686Z,10.07
2018-09-23T06:09:15.037Z,9.83
2018-09-23T06:11:43.391Z,10.70
2018-09-23T06:14:11.743Z,11.23
2018-09-23T06:16:40.088Z,11.23
2018-09-23T06:19:08.449Z,10.17
2018-09-23T06:21:36.777Z,9.90
2018-09-23T06:24:05.187Z,10.50
2018-09-23T06:26:33.508Z,9.90
2018-09-23T06:29:02.016Z,10.57
2018-09-23T06:31:30.352Z,9.60
2018-09-23T06:33:58.721Z,9.70
2018-09-23T06:36:27.091Z,9.27
2018-09-23T06:38:55.450Z,9.73
2018-09-23T06:41:23.775Z,9.20
2018-09-23T06:43:52.147Z,10.13
2018-09-23T06:46:20.471Z,10.60
2018-09-23T06:48:48.837Z,9.57
2018-09-23T06:51:17.196Z,9.40
2018-09-23T06:53:45.539Z,9.33
2018-09-23T06:56:13.891Z,8.57
2018-09-23T06:58:42.283Z,8.67
2018-09-23T07:01:10.630Z,9.20
2018-09-23T07:03:38.971Z,9.40
2018-09-23T07:06:07.324Z,9.43
2018-09-23T07:08:35.931Z,8.97
2018-09-23T07:11:04.311Z,9.10
2018-09-23T07:13:33.057Z,8.63
2018-09-23T07:16:01.435Z,8.97
2018-09-23T07:18:29.792Z,9.27
2018-09-23T07:20:58.147Z,8.90
2018-09-23T07:23:26.569Z,8.30
2018-09-23T07:25:55.008Z,7.90
2018-09-23T07:28:23.768Z,8.90
2018-09-23T07:30:52.391Z,8.43
2018-09-23T07:33:20.883Z,8.30
2018-09-23T07:35:49.332Z,8.70
2018-09-23T07:38:17.676Z,8.23
2018-09-23T07:40:46.044Z,7.57
2018-09-23T07:43:14.392Z,7.70
2018-09-23T07:45:42.797Z,8.20
2018-09-23T07:48:11.176Z,7.90
2018-09-23T07:50:39.551Z,7.93
2018-09-23T07:53:07.935Z,7.83
2018-09-23T07:55:36.330Z,7.07
2018-09-23T07:58:04.662Z,8.27
2018-09-23T08:00:33.022Z,7.60
2018-09-23T08:03:01.359Z,8.03
2018-09-23T08:05:29.719Z,7.40
2018-09-23T08:07:58.056Z,8.50
2018-09-23T08:10:26.615Z,9.30
2018-09-23T08:12:55.085Z,8.50
2018-09-23T08:15:23.383Z,7.67
2018-09-23T08:17:51.738Z,7.13
2018-09-23T08:20:20.212Z,7.63
2018-09-23T08:22:48.455Z,7.80
2018-09-23T08:25:16.838Z,7.70
2018-09-23T08:27:45.163Z,6.97
2018-09-23T08:30:13.528Z,7.07
2018-09-23T08:32:41.928Z,7.20
2018-09-23T08:35:10.286Z,6.87
2018-09-23T08:37:38.614Z,7.33
2018-09-23T08:40:07.021Z,7.03
2018-09-23T08:42:35.310Z,7.30
2018-09-23T08:45:03.696Z,7.00
2018-09-23T08:47:32.023Z,7.40
2018-09-23T08:50:00.364Z,6.63
2018-09-23T08:52:28.791Z,5.90
2018-09-23T08:54:57.134Z,6.40
2018-09-23T08:57:25.451Z,6.33
2018-09-23T08:59:53.811Z,5.83
2018-09-23T09:02:22.143Z,5.63
2018-09-23T09:04:50.485Z,5.50
2018-09-23T09:07:18.802Z,5.73
2018-09-23T09:09:47.234Z,5.40
2018-09-23T09:12:15.743Z,6.70
2018-09-23T09:14:44.108Z,5.70
2018-09-23T09:17:12.458Z,6.30
2018-09-23T09:19:40.839Z,5.30
2018-09-23T09:22:09.187Z,6.07
2018-09-23T09:24:37.510Z,6.10
2018-09-23T09:27:06.140Z,5.93
2018-09-23T09:29:34.462Z,5.73
2018-09-23T09:32:02.835Z,5.50
2018-09-23T09:34:31.163Z,6.07
2018-09-23T09:36:59.512Z,6.17
2018-09-23T09:39:27.864Z,5.80
2018-09-23T09:41:56.207Z,6.27
2018-09-23T09:44:24.550Z,6.40
2018-09-23T09:46:52.906Z,6.80
2018-09-23T09:49:21.240Z,6.47
2018-09-23T09:51:49.594Z,5.97
2018-09-23T09:54:17.935Z,5.93
2018-09-23T09:56:46.283Z,6.70
2018-09-23T09:59:14.612Z,6.70
2018-09-23T10:01:42.972Z,6.40
2018-09-23T10:04:11.303Z,6.60
2018-09-23T10:06:39.668Z,6.80
2018-09-23T10:09:09.177Z,6.53
2018-09-23T10:11:37.555Z,5.90
2018-09-23T10:14:05.958Z,6.47
2018-09-23T10:16:34.307Z,6.33
2018-09-23T10:19:02.634Z,5.90
2018-09-23T10:21:31.279Z,5.60
2018-09-23T10:24:00.413Z,5.90
2018-09-23T10:26:29.310Z,5.90
2018-09-23T10:28:58.092Z,5.77
2018-09-23T10:31:27.114Z,5.70
2018-09-23T10:33:55.368Z,5.40
2018-09-23T10:36:24.195Z,6.23
2018-09-23T10:38:52.531Z,6.10
2018-09-23T10:41:20.904Z,5.57
2018-09-23T10:43:49.227Z,6.13
2018-09-23T10:46:17.578Z,6.17
2018-09-23T10:48:47.136Z,6.07
2018-09-23T10:51:15.615Z,6.23
2018-09-23T10:53:43.949Z,5.83
2018-09-23T10:56:12.311Z,6.33
2018-09-23T10:58:40.937Z,6.70
2018-09-23T11:01:09.288Z,6.03
2018-09-23T11:03:37.669Z,6.80
2018-09-23T11:06:06.015Z,7.20
2018-09-23T11:08:34.347Z,7.13
2018-09-23T11:11:02.787Z,6.70
2018-09-23T11:13:31.136Z,7.07
2018-09-23T11:15:59.458Z,7.30
2018-09-23T11:18:27.831Z,6.80
2018-09-23T11:20:56.174Z,6.90
2018-09-23T11:23:24.547Z,6.57
2018-09-23T11:25:52.872Z,7.03
2018-09-23T11:28:21.220Z,7.23
2018-09-23T11:30:49.610Z,7.50
2018-09-23T11:33:17.985Z,7.63
2018-09-23T11:35:46.322Z,8.00
2018-09-23T11:38:14.858Z,7.57
2018-09-23T11:40:43.180Z,7.73
2018-09-23T11:43:11.531Z,6.57
2018-09-23T11:45:39.870Z,7.57
2018-09-23T11:48:08.235Z,8.27
2018-09-23T11:50:36.565Z,7.87
2018-09-23T11:53:04.916Z,6.80
2018-09-23T11:55:33.256Z,7.43
2018-09-23T11:58:01.613Z,8.07
2018-09-23T12:00:30.092Z,8.37
2018-09-23T12:02:58.470Z,9.20
2018-09-23T12:05:26.898Z,8.43
2018-09-23T12:07:55.263Z,8.33
2018-09-23T12:10:23.624Z,8.27
2018-09-23T12:12:52.030Z,7.43
2018-09-23T12:15:20.359Z,7.33
2018-09-23T12:17:48.711Z,7.90
2018-09-23T12:20:17.089Z,7.67
2018-09-23T12:22:45.461Z,7.77
2018-09-23T12:25:13.864Z,8.00
2018-09-23T12:27:42.182Z,8.37
2018-09-23T12:30:10.534Z,8.37
2018-09-23T12:32:38.887Z,8.60
2018-09-23T12:35:07.231Z,9.53
2018-09-23T12:37:35.662Z,8.50
2018-09-23T12:40:04.269Z,7.23
2018-09-23T12:42:32.634Z,7.90
2018-09-23T12:45:00.967Z,8.27
2018-09-23T12:47:29.314Z,8.17
2018-09-23T12:49:57.747Z,8.70
2018-09-23T12:52:26.094Z,8.47
2018-09-23T12:54:54.439Z,8.83
2018-09-23T12:57:22.796Z,7.73
2018-09-23T12:59:51.134Z,8.47
2018-09-23T13:02:19.523Z,9.33
2018-09-23T13:04:47.883Z,7.83
2018-09-23T13:07:16.214Z,7.57
2018-09-23T13:09:44.574Z,7.03
2018-09-23T13:12:12.914Z,7.43
2018-09-23T13:14:41.275Z,6.93
2018-09-23T13:17:09.607Z,6.63
2018-09-23T13:19:38.011Z,6.53
2018-09-23T13:22:06.365Z,6.77
2018-09-23T13:24:34.704Z,7.03
2018-09-23T13:27:03.086Z,6.97
2018-09-23T13:29:31.480Z,5.37
2018-09-23T13:31:59.835Z,5.33
2018-09-23T13:34:28.304Z,5.23
2018-09-23T13:36:56.652Z,4.00
2018-09-23T13:39:25.014Z,3.73
2018-09-23T13:41:53.571Z,3.30
2018-09-23T13:44:21.936Z,3.97
2018-09-23T13:46:50.253Z,3.60
2018-09-23T13:49:18.609Z,4.33
2018-09-23T13:51:46.939Z,4.30
2018-09-23T13:54:15.314Z,4.30
2018-09-23T13:56:43.659Z,4.50
2018-09-23T13:59:12.016Z,5.07
2018-09-23T14:01:40.344Z,5.10
2018-09-23T14:04:08.726Z,4.60
2018-09-23T14:06:37.051Z,5.00
2018-09-23T14:09:06.267Z,4.00
2018-09-23T14:11:34.653Z,5.13
2018-09-23T14:14:03.001Z,5.10
2018-09-23T14:16:31.341Z,5.33
2018-09-23T14:18:59.743Z,5.57
2018-09-23T14:21:28.099Z,5.50
2018-09-23T14:23:56.448Z,6.07
2018-09-23T14:26:25.419Z,5.87
2018-09-23T14:28:53.824Z,6.43
2018-09-23T14:31:22.159Z,5.90
2018-09-23T14:33:50.499Z,6.07
2018-09-23T14:36:18.837Z,6.33
2018-09-23T14:38:47.186Z,6.40
2018-09-23T14:41:16.056Z,6.47
2018-09-23T14:43:44.807Z,5.30
2018-09-23T14:46:13.156Z,5.40
2018-09-23T14:48:41.559Z,4.93
2018-09-23T14:51:09.846Z,4.43
2018-09-23T14:53:39.147Z,4.17
2018-09-23T14:56:07.507Z,3.93
2018-09-23T14:58:35.867Z,3.80
2018-09-23T15:01:04.216Z,3.60
2018-09-23T15:03:32.586Z,4.13
2018-09-23T15:06:02.194Z,3.70
2018-09-23T15:08:30.560Z,3.77
2018-09-23T15:10:58.938Z,3.60
2018-09-23T15:13:27.267Z,3.83
2018-09-23T15:15:55.610Z,4.20
2018-09-23T15:18:23.953Z,3.57
2018-09-23T15:20:52.341Z,3.50
2018-09-23T15:23:20.684Z,3.20
2018-09-23T15:25:49.034Z,3.00
2018-09-23T15:28:17.392Z,3.20
2018-09-23T15:30:45.799Z,2.53
2018-09-23T15:33:14.123Z,2.57
2018-09-23T15:35:42.532Z,2.80
2018-09-23T15:38:10.847Z,2.97
2018-09-23T15:40:39.869Z,3.00
2018-09-23T15:43:08.406Z,3.50
2018-09-23T15:45:36.747Z,3.60
2018-09-23T15:48:05.126Z,3.63
2018-09-23T15:50:33.482Z,3.50
2018-09-23T15:53:01.823Z,3.07
2018-09-23T15:55:30.178Z,3.20
2018-09-23T15:57:58.563Z,2.60
2018-09-23T16:00:26.916Z,3.27
2018-09-23T16:02:55.248Z,2.70
2018-09-23T16:05:23.653Z,2.70
2018-09-23T16:07:52.193Z,2.37
2018-09-23T16:10:20.523Z,3.10
2018-09-23T16:12:48.911Z,3.27
2018-09-23T16:15:17.255Z,3.20
2018-09-23T16:17:45.639Z,3.03
2018-09-23T16:20:14.010Z,3.13
2018-09-23T16:22:42.344Z,3.07
2018-09-23T16:25:10.731Z,3.83
2018-09-23T16:27:39.080Z,3.77
2018-09-23T16:30:07.445Z,4.33
2018-09-23T16:32:35.775Z,4.20
2018-09-23T16:35:04.186Z,4.67
2018-09-23T16:37:32.530Z,5.03
2018-09-23T16:40:00.870Z,4.13
2018-09-23T16:42:29.314Z,4.70
2018-09-23T16:44:57.663Z,4.60
2018-09-23T16:47:26.071Z,4.43
2018-09-23T16:49:54.454Z,4.57
2018-09-23T16:52:22.775Z,5.37
2018-09-23T16:54:51.163Z,4.63
2018-09-23T16:57:19.491Z,5.40
2018-09-23T16:59:47.811Z,4.83
2018-09-23T17:02:16.196Z,4.83
2018-09-23T17:04:44.530Z,3.97
2018-09-23T17:07:12.938Z,4.47
2018-09-23T17:09:41.459Z,4.10
2018-09-23T17:12:09.831Z,3.23
2018-09-23T17:14:38.168Z,3.30
2018-09-23T17:17:06.506Z,3.20
2018-09-23T17:19:34.846Z,3.63
2018-09-23T17:22:03.193Z,2.70
2018-09-23T17:24:31.564Z,2.50
2018-09-23T17:26:59.942Z,2.00
2018-09-23T17:29:28.258Z,2.00
2018-09-23T17:31:56.607Z,1.93
2018-09-23T17:34:24.939Z,1.87
2018-09-23T17:36:53.300Z,1.73
2018-09-23T17:39:21.671Z,1.83
2018-09-23T17:41:50.226Z,1.80
2018-09-23T17:44:18.596Z,2.00
2018-09-23T17:46:46.946Z,1.90
2018-09-23T17:49:15.279Z,1.93
2018-09-23T17:51:43.618Z,2.10
2018-09-23T17:54:11.931Z,2.27
2018-09-23T17:56:40.287Z,1.90
2018-09-23T17:59:08.631Z,2.27
2018-09-23T18:01:36.968Z,2.30
2018-09-23T18:04:05.284Z,2.47
2018-09-23T18:06:33.617Z,1.90
2018-09-23T18:09:01.948Z,1.60
2018-09-23T18:11:30.496Z,1.60
2018-09-23T18:13:58.831Z,1.60
2018-09-23T18:16:27.195Z,1.97
2018-09-23T18:18:55.522Z,1.90
2018-09-23T18:21:23.878Z,1.80
2018-09-23T18:23:52.221Z,1.87
2018-09-23T18:26:20.579Z,2.03
2018-09-23T18:28:48.895Z,2.00
2018-09-23T18:31:17.239Z,2.07
2018-09-23T18:33:45.564Z,1.93
2018-09-23T18:36:15.819Z,2.07
2018-09-23T18:38:44.363Z,1.70
2018-09-23T18:41:13.937Z,1.70
2018-09-23T18:43:43.465Z,1.70
2018-09-23T18:46:11.838Z,1.77
2018-09-23T18:48:41.410Z,1.70
2018-09-23T18:51:09.805Z,1.93
2018-09-23T18:53:39.026Z,1.93
2018-09-23T18:56:08.003Z,2.10
2018-09-23T18:58:36.954Z,2.10
2018-09-23T19:01:06.123Z,1.97
2018-09-23T19:03:34.568Z,1.70
2018-09-23T19:06:02.904Z,1.60
2018-09-23T19:08:31.235Z,1.50
2018-09-23T19:10:59.585Z,1.60
2018-09-23T19:13:33.229Z,1.57
2018-09-23T19:16:07.028Z,1.70
2018-09-23T19:18:35.359Z,1.80
2018-09-23T19:21:03.747Z,1.77
2018-09-23T19:23:32.080Z,1.90
2018-09-23T19:26:01.627Z,2.00
2018-09-23T19:28:30.007Z,2.17
2018-09-23T19:30:59.546Z,1.93
2018-09-23T19:33:27.886Z,2.00
2018-09-23T19:35:56.205Z,2.43
2018-09-23T19:38:24.704Z,2.27
2018-09-23T19:40:53.025Z,2.43
2018-09-23T19:43:21.359Z,2.47
2018-09-23T19:45:49.684Z,2.73
2018-09-23T19:48:18.063Z,2.53
2018-09-23T19:50:46.386Z,2.83
2018-09-23T19:53:14.727Z,2.80
2018-09-23T19:55:43.082Z,3.00
2018-09-23T19:58:11.456Z,2.73
2018-09-23T20:00:39.772Z,3.20
2018-09-23T20:03:08.114Z,2.83
2018-09-23T20:05:36.451Z,2.80
2018-09-23T20:08:04.907Z,2.70
2018-09-23T20:10:33.219Z,2.40
2018-09-23T20:13:01.664Z,2.87
2018-09-23T20:15:29.967Z,2.63
2018-09-23T20:17:58.311Z,2.87
2018-09-23T20:20:26.665Z,2.40
2018-09-23T20:22:55.042Z,2.30
2018-09-23T20:25:23.358Z,2.50
2018-09-23T20:27:51.773Z,2.27
2018-09-23T20:30:20.103Z,2.23
2018-09-23T20:32:48.471Z,2.23
2018-09-23T20:35:16.806Z,2.27
2018-09-23T20:37:45.150Z,2.70
2018-09-23T20:40:13.458Z,2.47
2018-09-23T20:42:41.810Z,2.43
2018-09-23T20:45:10.119Z,2.10
2018-09-23T20:47:38.694Z,2.50
2018-09-23T20:50:07.042Z,2.33
2018-09-23T20:52:35.354Z,2.70
2018-09-23T20:55:03.690Z,2.63
2018-09-23T20:57:32.004Z,2.70
2018-09-23T21:00:00.341Z,2.80
2018-09-23T21:02:28.657Z,3.10
2018-09-23T21:04:56.991Z,2.60
2018-09-23T21:07:25.302Z,2.90
2018-09-23T21:09:53.638Z,2.90
2018-09-23T21:12:21.977Z,2.97
2018-09-23T21:14:50.309Z,2.80
2018-09-23T21:17:18.618Z,3.00
2018-09-23T21:19:46.935Z,2.70
2018-09-23T21:22:15.239Z,3.23
2018-09-23T21:24:43.574Z,2.60
2018-09-23T21:27:11.898Z,2.73
2018-09-23T21:29:40.256Z,3.03
2018-09-23T21:32:08.569Z,2.73
2018-09-23T21:34:36.891Z,2.17
2018-09-23T21:37:05.201Z,2.17
2018-09-23T21:39:33.535Z,2.20
2018-09-23T21:42:01.845Z,1.97
2018-09-23T21:44:30.183Z,2.00
2018-09-23T21:46:58.491Z,2.40
2018-09-23T21:49:26.914Z,2.13
2018-09-23T21:51:55.234Z,2.13
2018-09-23T21:54:23.573Z,2.23
2018-09-23T21:56:51.883Z,1.83
2018-09-23T21:59:20.214Z,1.87
2018-09-23T22:01:48.583Z,2.00
2018-09-23T22:04:16.911Z,1.80
2018-09-23T22:06:45.234Z,1.93
2018-09-23T22:09:13.564Z,1.80
2018-09-23T22:11:41.887Z,1.60
2018-09-23T22:14:10.254Z,1.73
2018-09-23T22:16:38.551Z,1.63
2018-09-23T22:19:06.895Z,1.70
2018-09-23T22:21:35.257Z,1.63
2018-09-23T22:24:03.567Z,1.30
2018-09-23T22:26:31.902Z,1.40
2018-09-23T22:29:00.364Z,1.37
2018-09-23T22:31:28.675Z,1.60
2018-09-23T22:33:56.976Z,1.67
2018-09-23T22:36:25.297Z,1.40
2018-09-23T22:38:53.606Z,1.10
2018-09-23T22:41:21.923Z,1.30
2018-09-23T22:43:50.234Z,1.43
2018-09-23T22:46:18.562Z,1.50
2018-09-23T22:48:46.864Z,1.50
2018-09-23T22:51:15.240Z,1.43
2018-09-23T22:53:43.574Z,1.40
2018-09-23T22:56:11.899Z,1.37
2018-09-23T22:58:40.223Z,1.67
2018-09-23T23:01:08.564Z,1.67
2018-09-23T23:03:36.878Z,1.37
2018-09-23T23:06:05.477Z,1.40
2018-09-23T23:08:33.774Z,1.20
2018-09-23T23:11:02.126Z,1.50
2018-09-23T23:13:30.438Z,1.30
2018-09-23T23:15:58.790Z,1.30
2018-09-23T23:18:27.093Z,1.80
2018-09-23T23:20:55.415Z,1.40
2018-09-23T23:23:23.727Z,1.60
2018-09-23T23:25:52.050Z,1.60
2018-09-23T23:28:20.354Z,1.40
2018-09-23T23:30:48.920Z,1.50
2018-09-23T23:33:17.268Z,1.33
2018-09-23T23:35:45.593Z,1.27
2018-09-23T23:38:13.907Z,1.47
2018-09-23T23:40:42.231Z,1.70
2018-09-23T23:43:10.548Z,1.50
2018-09-23T23:45:38.866Z,1.37
2018-09-23T23:48:07.187Z,1.40
2018-09-23T23:50:35.527Z,1.30
2018-09-23T23:53:03.842Z,1.83
2018-09-23T23:55:32.235Z,1.50
2018-09-23T23:58:00.542Z,1.73
